Time;durP1;ratioP1;P1;durP2;ratioP2;P2;SDS_P1;SDS_P2;PMS_P1;PMS_P2;Temp;Humidity;BMP_temperature;BMP_pressure;BME280_temperature;BME280_humidity;BME280_pressure;Samples;Min_cycle;Max_cycle;Signal;HPM_P1;HPM_P2
2021/08/17 00:01:13;;;;;;;5.18;2.25;;;12.20;99.90;;;;;;5093109;28;20051;-86
2021/08/17 00:03:39;;;;;;;3.53;1.98;;;12.10;99.90;;;;;;5094154;28;20022;-87
2021/08/17 00:06:05;;;;;;;3.55;2.20;;;12.10;99.90;;;;;;5092800;28;20028;-87
2021/08/17 00:08:31;;;;;;;15.88;2.20;;;12.10;99.90;;;;;;5093455;28;20070;-87
2021/08/17 00:10:58;;;;;;;3.63;2.33;;;12.10;99.90;;;;;;5094303;28;20484;-87
2021/08/17 00:13:23;;;;;;;12.25;2.88;;;12.10;99.90;;;;;;5094355;28;20016;-87
2021/08/17 00:15:49;;;;;;;6.55;3.03;;;12.10;99.90;;;;;;5092571;28;20381;-88
2021/08/17 00:18:15;;;;;;;10.82;3.22;;;12.00;99.90;;;;;;5094272;28;20033;-87
2021/08/17 00:20:41;;;;;;;7.40;2.90;;;12.00;99.90;;;;;;5092875;28;20481;-86
2021/08/17 00:23:07;;;;;;;5.05;2.80;;;11.90;99.90;;;;;;5092873;28;20039;-87
2021/08/17 00:25:34;;;;;;;7.72;2.42;;;11.90;99.90;;;;;;5092339;28;20016;-88
2021/08/17 00:28:00;;;;;;;6.32;2.65;;;11.90;99.90;;;;;;5073883;28;20055;-88
2021/08/17 00:30:26;;;;;;;6.30;2.97;;;11.80;99.90;;;;;;5073606;28;20048;-87
2021/08/17 00:32:52;;;;;;;4.45;2.78;;;11.90;99.90;;;;;;5072375;28;20020;-87
2021/08/17 00:35:17;;;;;;;9.68;3.10;;;11.90;99.90;;;;;;5072329;28;20450;-87
2021/08/17 00:37:43;;;;;;;16.77;3.92;;;11.90;99.90;;;;;;5086892;28;20028;-86
2021/08/17 00:40:11;;;;;;;13.70;3.63;;;11.90;99.90;;;;;;5092729;28;20488;-85
2021/08/17 00:42:42;;;;;;;12.10;3.50;;;11.90;99.90;;;;;;5095060;28;20044;-87
2021/08/17 00:45:17;;;;;;;9.25;3.72;;;11.90;99.90;;;;;;5092282;28;20586;-87
2021/08/17 00:47:43;;;;;;;14.00;4.25;;;12.00;99.90;;;;;;5092601;28;20089;-86
2021/08/17 00:50:08;;;;;;;10.88;3.67;;;12.00;99.90;;;;;;5092562;28;20012;-86
2021/08/17 00:52:34;;;;;;;17.75;4.03;;;12.00;99.90;;;;;;5092266;28;20111;-87
2021/08/17 00:55:00;;;;;;;13.45;4.13;;;12.10;99.90;;;;;;5093271;28;20020;-86
2021/08/17 00:57:26;;;;;;;13.70;4.85;;;12.10;99.90;;;;;;5092999;28;20028;-88
2021/08/17 00:59:52;;;;;;;17.23;4.82;;;12.20;99.90;;;;;;5093797;28;20040;-87
2021/08/17 01:02:17;;;;;;;9.82;4.05;;;12.20;99.90;;;;;;5092424;28;20028;-86
2021/08/17 01:04:43;;;;;;;17.98;5.10;;;12.20;99.90;;;;;;5093384;28;20495;-86
2021/08/17 01:07:09;;;;;;;17.90;4.93;;;12.30;99.90;;;;;;5091918;28;20047;-87
2021/08/17 01:09:35;;;;;;;21.98;4.50;;;12.30;99.90;;;;;;5091782;28;20480;-87
2021/08/17 01:12:01;;;;;;;12.20;3.88;;;12.30;99.90;;;;;;5092759;28;20081;-85
2021/08/17 01:14:27;;;;;;;9.68;4.25;;;12.30;99.90;;;;;;5092855;28;20029;-87
2021/08/17 01:16:53;;;;;;;13.40;3.90;;;12.10;99.90;;;;;;5092970;28;20104;-87
2021/08/17 01:19:20;;;;;;;14.07;3.20;;;12.20;99.90;;;;;;5091347;28;20028;-87
2021/08/17 01:21:46;;;;;;;20.25;3.95;;;12.20;99.90;;;;;;5093064;28;20020;-86
2021/08/17 01:24:12;;;;;;;14.48;4.10;;;12.20;99.90;;;;;;5092747;28;20107;-86
2021/08/17 01:26:38;;;;;;;15.35;3.25;;;12.20;99.90;;;;;;5092843;28;20096;-87
2021/08/17 01:29:04;;;;;;;12.20;3.47;;;12.30;99.90;;;;;;5092466;28;20027;-86
2021/08/17 01:31:31;;;;;;;11.80;3.53;;;12.20;99.90;;;;;;5091439;28;20016;-88
2021/08/17 01:33:57;;;;;;;15.90;3.42;;;12.30;99.90;;;;;;5092623;28;20020;-87
2021/08/17 01:36:22;;;;;;;13.88;4.07;;;12.30;99.90;;;;;;5091556;28;20035;-87
2021/08/17 01:38:50;;;;;;;10.20;3.65;;;12.40;99.90;;;;;;5092237;28;20035;-87
2021/08/17 01:41:16;;;;;;;13.10;3.20;;;12.40;99.90;;;;;;5091549;28;20024;-87
2021/08/17 01:43:44;;;;;;;8.52;3.40;;;12.40;99.90;;;;;;5092574;28;20080;-86
2021/08/17 01:46:10;;;;;;;8.95;3.30;;;12.40;99.90;;;;;;5091184;28;20077;-85
2021/08/17 01:48:36;;;;;;;13.07;3.85;;;12.40;99.90;;;;;;5090686;28;20372;-87
2021/08/17 01:51:01;;;;;;;19.25;2.75;;;12.40;99.90;;;;;;5092175;28;20031;-86
2021/08/17 01:53:29;;;;;;;9.55;3.17;;;12.40;99.90;;;;;;5091177;28;20104;-87
2021/08/17 01:55:56;;;;;;;10.23;3.42;;;12.30;99.90;;;;;;5090727;28;20418;-85
2021/08/17 01:58:25;;;;;;;14.77;2.97;;;12.40;99.90;;;;;;5091103;28;20032;-86
2021/08/17 02:00:51;;;;;;;10.13;2.92;;;12.30;99.90;;;;;;5092198;28;20464;-87
2021/08/17 02:03:17;;;;;;;16.10;3.22;;;12.30;99.90;;;;;;5090584;28;20077;-85
2021/08/17 02:05:43;;;;;;;17.80;4.72;;;12.30;99.90;;;;;;5092048;28;20028;-87
2021/08/17 02:08:09;;;;;;;13.10;3.95;;;12.40;99.90;;;;;;5091121;28;20029;-86
2021/08/17 02:10:36;;;;;;;10.80;3.13;;;12.40;99.90;;;;;;5091865;28;20085;-88
2021/08/17 02:13:06;;;;;;;18.55;3.28;;;12.40;99.90;;;;;;5091112;28;20052;-86
2021/08/17 02:15:31;;;;;;;10.23;2.97;;;12.40;99.90;;;;;;5090833;28;20032;-87
2021/08/17 02:17:57;;;;;;;10.10;3.72;;;12.40;99.90;;;;;;5090897;28;20077;-87
2021/08/17 02:20:23;;;;;;;25.25;3.90;;;12.40;99.90;;;;;;5091465;28;20035;-87
2021/08/17 02:22:49;;;;;;;17.05;4.07;;;12.40;99.90;;;;;;5091233;28;20123;-86
2021/08/17 02:25:14;;;;;;;13.52;4.45;;;12.40;99.90;;;;;;5090522;28;20028;-87
2021/08/17 02:27:40;;;;;;;12.75;3.83;;;12.40;99.90;;;;;;5090727;28;20020;-86
2021/08/17 02:30:07;;;;;;;8.05;3.22;;;12.50;99.90;;;;;;5091736;28;20025;-86
2021/08/17 02:32:32;;;;;;;11.35;3.28;;;12.40;99.90;;;;;;5090847;28;20016;-86
2021/08/17 02:34:58;;;;;;;10.57;3.28;;;12.40;99.90;;;;;;5090600;28;20127;-85
2021/08/17 02:37:24;;;;;;;13.00;2.92;;;12.40;99.90;;;;;;5090748;28;20024;-86
2021/08/17 02:39:50;;;;;;;12.32;3.25;;;12.40;99.90;;;;;;5090576;28;20035;-87
2021/08/17 02:42:16;;;;;;;16.35;3.15;;;12.40;99.90;;;;;;5090382;28;20061;-85
2021/08/17 02:44:42;;;;;;;16.48;3.10;;;12.40;99.90;;;;;;5090336;28;20035;-87
2021/08/17 02:47:08;;;;;;;16.30;3.17;;;12.40;99.90;;;;;;5091764;28;20043;-88
2021/08/17 02:49:33;;;;;;;11.27;3.10;;;12.40;99.90;;;;;;5090616;28;20107;-86
2021/08/17 02:52:03;;;;;;;19.08;3.00;;;12.40;99.90;;;;;;5090356;28;20024;-87
2021/08/17 02:54:30;;;;;;;16.08;3.33;;;12.40;99.90;;;;;;5091549;28;20021;-86
2021/08/17 02:56:55;;;;;;;15.38;3.90;;;12.30;99.90;;;;;;5090472;28;20028;-86
2021/08/17 02:59:21;;;;;;;11.02;2.97;;;12.40;99.90;;;;;;5090690;28;20024;-87
2021/08/17 03:01:46;;;;;;;16.75;3.78;;;12.40;99.90;;;;;;5094105;28;20031;-87
2021/08/17 03:04:12;;;;;;;33.13;6.22;;;12.50;99.90;;;;;;5095430;28;20054;-87
2021/08/17 03:06:38;;;;;;;19.45;3.17;;;12.60;99.90;;;;;;5094512;28;20543;-87
2021/08/17 03:09:03;;;;;;;20.35;3.08;;;12.60;99.90;;;;;;5095031;28;20028;-86
2021/08/17 03:11:29;;;;;;;16.75;3.60;;;12.70;99.90;;;;;;5095399;28;20062;-86
2021/08/17 03:13:57;;;;;;;35.45;3.83;;;12.60;99.90;;;;;;5094069;28;20027;-86
2021/08/17 03:16:23;;;;;;;18.52;3.13;;;12.60;99.90;;;;;;5095437;28;20047;-87
2021/08/17 03:18:48;;;;;;;23.42;3.45;;;12.70;99.90;;;;;;5094292;28;20472;-86
2021/08/17 03:21:14;;;;;;;17.52;3.25;;;12.80;99.90;;;;;;5094347;28;20035;-88
2021/08/17 03:23:41;;;;;;;30.27;4.20;;;13.00;99.90;;;;;;5093819;28;20031;-88
2021/08/17 03:26:07;;;;;;;31.55;5.18;;;13.00;99.90;;;;;;5093762;28;20173;-88
2021/08/17 03:28:32;;;;;;;32.58;4.80;;;13.00;99.90;;;;;;5095475;28;20095;-87
2021/08/17 03:30:58;;;;;;;31.02;4.80;;;13.10;99.90;;;;;;5094345;28;20024;-88
2021/08/17 03:33:23;;;;;;;39.80;5.90;;;13.10;99.90;;;;;;5093846;28;20050;-88
2021/08/17 03:35:49;;;;;;;28.73;5.75;;;13.10;99.90;;;;;;5094908;28;20024;-87
2021/08/17 03:38:15;;;;;;;46.55;6.88;;;13.20;99.90;;;;;;5094933;28;20030;-88
2021/08/17 03:40:41;;;;;;;52.17;6.35;;;13.20;99.90;;;;;;5095243;28;20093;-86
2021/08/17 03:43:06;;;;;;;38.83;5.63;;;13.30;99.90;;;;;;5095127;28;20450;-86
2021/08/17 03:45:32;;;;;;;58.95;8.93;;;13.40;99.90;;;;;;5093539;28;20056;-89
2021/08/17 03:47:58;;;;;;;45.78;6.65;;;13.40;99.90;;;;;;5093881;28;20016;-86
2021/08/17 03:50:24;;;;;;;40.10;7.45;;;13.50;99.90;;;;;;5093606;28;20109;-88
2021/08/17 03:52:49;;;;;;;59.63;7.38;;;13.50;99.90;;;;;;5094527;28;20027;-86
2021/08/17 03:55:15;;;;;;;45.75;7.80;;;13.70;99.90;;;;;;5094558;28;20040;-87
2021/08/17 03:57:41;;;;;;;53.05;8.68;;;13.60;99.90;;;;;;5093772;28;20488;-85
2021/08/17 04:00:13;;;;;;;41.00;5.82;;;13.60;99.90;;;;;;5093594;28;20122;-88
2021/08/17 04:02:39;;;;;;;50.42;7.65;;;13.70;99.90;;;;;;5094851;28;20023;-85
2021/08/17 04:05:08;;;;;;;49.05;6.53;;;13.70;99.90;;;;;;5092858;28;20111;-86
2021/08/17 04:07:33;;;;;;;38.28;6.25;;;13.80;99.90;;;;;;5093748;28;20161;-89
2021/08/17 04:09:59;;;;;;;48.38;7.45;;;13.90;99.90;;;;;;5093285;28;20069;-86
2021/08/17 04:12:25;;;;;;;49.50;7.95;;;13.90;99.90;;;;;;5094631;28;20024;-87
2021/08/17 04:14:50;;;;;;;50.10;8.20;;;14.00;99.90;;;;;;5092840;28;20039;-86
2021/08/17 04:17:16;;;;;;;40.53;7.10;;;14.10;99.90;;;;;;5093235;28;20111;-87
2021/08/17 04:19:43;;;;;;;46.22;6.45;;;14.10;99.90;;;;;;5093141;28;20063;-86
2021/08/17 04:22:09;;;;;;;39.42;5.72;;;14.20;99.90;;;;;;5094434;28;20024;-89
2021/08/17 04:24:34;;;;;;;42.92;7.95;;;14.20;99.90;;;;;;5092600;28;20039;-89
2021/08/17 04:27:00;;;;;;;47.78;8.70;;;14.20;99.90;;;;;;5092957;28;20024;-88
2021/08/17 04:29:26;;;;;;;51.47;7.43;;;14.20;99.90;;;;;;5092839;28;20028;-87
2021/08/17 04:31:51;;;;;;;47.88;10.00;;;14.10;99.90;;;;;;5092944;28;20035;-89
2021/08/17 04:34:17;;;;;;;52.38;7.85;;;14.10;99.90;;;;;;5092097;28;20119;-86
2021/08/17 04:36:42;;;;;;;45.10;6.30;;;13.90;99.90;;;;;;5094248;28;20027;-87
2021/08/17 04:39:08;;;;;;;36.22;6.00;;;13.90;99.90;;;;;;5092775;28;20046;-86
2021/08/17 04:41:33;;;;;;;35.75;7.07;;;14.00;99.90;;;;;;5093978;28;20043;-88
2021/08/17 04:43:59;;;;;;;39.53;6.47;;;13.90;99.90;;;;;;5092301;28;20020;-87
2021/08/17 04:46:24;;;;;;;45.75;7.10;;;13.90;99.90;;;;;;5091988;28;20069;-88
2021/08/17 04:48:50;;;;;;;54.90;7.38;;;14.00;99.90;;;;;;5092419;28;20400;-88
2021/08/17 04:51:16;;;;;;;27.73;6.32;;;14.00;99.90;;;;;;5093810;28;20020;-86
2021/08/17 04:53:42;;;;;;;48.63;7.90;;;14.00;99.90;;;;;;5093556;28;20031;-87
2021/08/17 04:56:08;;;;;;;39.55;5.95;;;14.20;99.90;;;;;;5091773;28;20058;-85
2021/08/17 04:58:33;;;;;;;34.83;6.32;;;14.30;99.90;;;;;;5093473;28;20373;-88
2021/08/17 05:00:59;;;;;;;41.88;6.95;;;14.40;99.90;;;;;;5093767;28;20047;-87
2021/08/17 05:03:26;;;;;;;30.50;5.93;;;14.40;99.90;;;;;;5093355;28;20081;-87
2021/08/17 05:05:52;;;;;;;38.78;6.60;;;14.50;99.90;;;;;;5091210;28;20081;-87
2021/08/17 05:08:17;;;;;;;44.97;7.00;;;14.60;99.90;;;;;;5092074;28;20055;-87
2021/08/17 05:10:43;;;;;;;47.45;6.97;;;14.50;99.90;;;;;;5093292;28;20060;-86
2021/08/17 05:13:09;;;;;;;50.47;6.47;;;14.60;99.90;;;;;;5092038;28;20145;-86
2021/08/17 05:15:35;;;;;;;36.75;5.75;;;14.60;99.90;;;;;;5092418;28;20421;-86
2021/08/17 05:18:02;;;;;;;25.20;5.32;;;14.60;99.90;;;;;;5092923;28;20107;-88
2021/08/17 05:20:28;;;;;;;41.78;8.85;;;14.60;99.90;;;;;;5091693;28;20043;-88
2021/08/17 05:22:54;;;;;;;28.65;5.93;;;14.40;99.90;;;;;;5091296;28;20032;-88
2021/08/17 05:25:19;;;;;;;32.70;6.68;;;14.40;99.90;;;;;;5091290;28;20028;-86
2021/08/17 05:27:45;;;;;;;42.20;8.60;;;14.40;99.90;;;;;;5091109;28;20028;-88
2021/08/17 05:30:11;;;;;;;40.35;6.55;;;14.50;99.90;;;;;;5091530;28;20050;-87
2021/08/17 05:32:37;;;;;;;38.10;7.10;;;14.50;99.90;;;;;;5092618;28;20081;-87
2021/08/17 05:35:04;;;;;;;35.05;6.32;;;14.50;99.90;;;;;;5091279;28;20032;-87
2021/08/17 05:37:29;;;;;;;36.83;6.47;;;14.50;99.90;;;;;;5092453;28;20039;-89
2021/08/17 05:39:55;;;;;;;37.13;7.22;;;14.50;99.90;;;;;;5091329;28;20031;-86
2021/08/17 05:42:23;;;;;;;41.42;6.05;;;14.60;99.90;;;;;;5092559;28;20488;-85
2021/08/17 05:44:48;;;;;;;30.08;6.80;;;14.60;99.90;;;;;;5092535;28;20023;-85
2021/08/17 05:47:14;;;;;;;34.97;6.45;;;14.60;99.90;;;;;;5091550;28;20020;-87
2021/08/17 05:49:40;;;;;;;26.13;4.55;;;14.70;99.90;;;;;;5092308;28;20016;-88
2021/08/17 05:52:07;;;;;;;43.53;6.38;;;14.70;99.90;;;;;;5092370;28;20480;-88
2021/08/17 05:54:33;;;;;;;34.20;5.32;;;14.70;99.90;;;;;;5091031;28;20032;-88
2021/08/17 05:56:58;;;;;;;28.92;5.28;;;14.80;99.90;;;;;;5091160;28;20031;-86
2021/08/17 05:59:28;;;;;;;25.20;4.40;;;14.90;99.90;;;;;;5091051;28;20508;-87
2021/08/17 06:01:57;;;;;;;35.53;6.05;;;15.00;99.90;;;;;;5090401;28;20032;-86
2021/08/17 06:04:22;;;;;;;33.22;5.78;;;15.10;99.90;;;;;;5091544;28;20035;-88
2021/08/17 06:06:48;;;;;;;27.27;6.20;;;15.20;99.90;;;;;;5092104;28;20016;-87
2021/08/17 06:09:20;;;;;;;21.83;5.15;;;15.30;99.90;;;;;;5090680;28;20502;-88
2021/08/17 06:11:48;;;;;;;32.92;5.50;;;15.30;99.90;;;;;;5086437;28;20027;-87
2021/08/17 06:14:14;;;;;;;29.60;4.95;;;15.40;99.90;;;;;;5087791;28;20058;-86
2021/08/17 06:16:41;;;;;;;23.08;4.55;;;15.40;99.90;;;;;;5086585;28;20502;-86
2021/08/17 06:19:06;;;;;;;34.72;6.18;;;15.60;99.90;;;;;;5082670;28;20024;-87
2021/08/17 06:21:34;;;;;;;37.63;7.13;;;15.70;99.90;;;;;;5082080;28;20039;-84
2021/08/17 06:24:01;;;;;;;34.20;5.35;;;16.00;99.90;;;;;;5087442;28;20028;-85
2021/08/17 06:26:26;;;;;;;31.63;4.88;;;16.10;99.90;;;;;;5081950;28;20027;-86
2021/08/17 06:28:52;;;;;;;33.70;7.57;;;16.20;99.90;;;;;;5086575;28;20024;-84
2021/08/17 06:31:22;;;;;;;26.85;4.57;;;16.30;99.90;;;;;;5086558;28;20036;-84
2021/08/17 06:33:52;;;;;;;33.30;5.70;;;16.30;99.90;;;;;;5084039;28;20040;-88
2021/08/17 06:36:18;;;;;;;41.45;5.82;;;16.10;99.90;;;;;;5085075;28;20024;-85
2021/08/17 06:38:44;;;;;;;41.70;5.38;;;16.10;99.90;;;;;;5091867;28;20040;-86
2021/08/17 06:41:09;;;;;;;33.00;5.10;;;15.90;99.90;;;;;;5089739;28;20038;-87
2021/08/17 06:43:35;;;;;;;31.70;5.03;;;16.00;99.90;;;;;;5090347;28;20042;-88
2021/08/17 06:46:02;;;;;;;39.15;5.15;;;16.10;99.90;;;;;;5091960;28;20032;-87
2021/08/17 06:48:28;;;;;;;45.20;6.40;;;16.10;99.90;;;;;;5090831;28;20028;-88
2021/08/17 06:50:53;;;;;;;27.63;4.68;;;16.10;99.90;;;;;;5092043;28;20035;-88
2021/08/17 06:53:19;;;;;;;38.95;7.32;;;16.10;99.90;;;;;;5091303;28;20024;-87
2021/08/17 06:55:45;;;;;;;20.73;3.78;;;16.40;99.90;;;;;;5091007;28;20031;-85
2021/08/17 06:58:14;;;;;;;35.22;5.22;;;16.50;99.90;;;;;;5086686;28;20020;-86
2021/08/17 07:00:41;;;;;;;36.10;6.35;;;16.80;99.90;;;;;;5090221;28;20503;-87
2021/08/17 07:03:08;;;;;;;45.80;6.45;;;17.10;99.90;;;;;;5091878;28;20038;-85
2021/08/17 07:05:40;;;;;;;30.60;4.97;;;17.10;99.90;;;;;;5089991;28;20082;-87
2021/08/17 07:08:06;;;;;;;34.05;6.13;;;17.10;99.90;;;;;;5085564;28;20024;-88
2021/08/17 07:10:32;;;;;;;28.17;4.28;;;17.00;99.90;;;;;;5091694;28;20020;-87
2021/08/17 07:12:57;;;;;;;28.33;5.65;;;16.80;99.90;;;;;;5091107;28;20106;-87
2021/08/17 07:15:23;;;;;;;28.83;5.45;;;16.60;99.90;;;;;;5089932;28;20132;-84
2021/08/17 07:17:49;;;;;;;23.65;4.82;;;16.30;99.90;;;;;;5090460;28;20020;-86
2021/08/17 07:20:15;;;;;;;24.85;4.35;;;16.10;99.90;;;;;;5090139;28;20063;-83
2021/08/17 07:22:41;;;;;;;20.35;4.47;;;16.40;99.90;;;;;;5086442;28;20097;-87
2021/08/17 07:25:07;;;;;;;26.50;4.75;;;16.70;99.90;;;;;;5090520;28;20020;-88
2021/08/17 07:27:33;;;;;;;21.27;3.42;;;16.90;99.90;;;;;;5091855;28;20031;-86
2021/08/17 07:29:58;;;;;;;22.08;5.13;;;17.10;99.90;;;;;;5090484;28;20020;-82
2021/08/17 07:32:24;;;;;;;18.05;3.33;;;17.20;99.90;;;;;;5092174;28;20028;-85
2021/08/17 07:34:49;;;;;;;24.58;4.38;;;16.90;99.90;;;;;;5090310;28;20484;-84
2021/08/17 07:37:15;;;;;;;19.67;3.85;;;16.90;99.90;;;;;;5091668;28;20035;-84
2021/08/17 07:39:41;;;;;;;29.35;4.60;;;16.90;99.90;;;;;;5089942;28;20119;-87
2021/08/17 07:42:06;;;;;;;25.80;4.18;;;17.10;99.90;;;;;;5089561;28;20475;-86
2021/08/17 07:44:34;;;;;;;29.33;4.40;;;17.40;99.90;;;;;;5091109;28;20472;-86
2021/08/17 07:47:00;;;;;;;25.98;4.63;;;17.60;99.90;;;;;;5089654;28;20020;-84
2021/08/17 07:49:25;;;;;;;33.22;4.65;;;17.80;99.90;;;;;;5091366;28;20024;-83
2021/08/17 07:51:51;;;;;;;20.77;3.72;;;17.80;99.90;;;;;;5091455;28;20024;-85
2021/08/17 07:54:16;;;;;;;28.90;4.28;;;17.50;99.90;;;;;;5089171;28;20024;-85
2021/08/17 07:56:42;;;;;;;19.13;4.03;;;17.60;99.90;;;;;;5088512;28;20035;-83
2021/08/17 07:59:08;;;;;;;35.40;6.43;;;17.70;99.90;;;;;;5090967;28;20597;-85
2021/08/17 08:01:33;;;;;;;18.85;4.13;;;18.00;99.90;;;;;;5089899;28;20476;-85
2021/08/17 08:04:00;;;;;;;23.83;3.17;;;17.80;99.90;;;;;;5090400;28;20124;-83
2021/08/17 08:06:25;;;;;;;27.52;4.13;;;17.70;99.90;;;;;;5084412;28;20013;-82
2021/08/17 08:08:51;;;;;;;23.85;3.65;;;17.60;99.90;;;;;;5084536;28;20476;-82
2021/08/17 08:11:17;;;;;;;30.80;4.25;;;17.60;99.90;;;;;;5089555;28;20555;-81
2021/08/17 08:13:42;;;;;;;23.55;4.00;;;17.60;99.90;;;;;;5088796;28;20059;-82
2021/08/17 08:16:08;;;;;;;30.58;4.40;;;17.90;99.90;;;;;;5089200;28;20089;-82
2021/08/17 08:18:33;;;;;;;22.75;3.92;;;17.90;99.90;;;;;;5090367;28;20036;-82
2021/08/17 08:20:59;;;;;;;22.52;3.92;;;18.00;99.90;;;;;;5090730;28;20085;-84
2021/08/17 08:23:24;;;;;;;26.25;3.95;;;17.70;99.90;;;;;;5088778;28;20044;-86
2021/08/17 08:25:50;;;;;;;21.10;4.05;;;17.80;99.90;;;;;;5088832;28;20440;-85
2021/08/17 08:28:16;;;;;;;23.02;4.15;;;18.00;99.90;;;;;;5089360;28;20157;-89
2021/08/17 08:30:41;;;;;;;26.08;4.20;;;18.10;99.90;;;;;;5089032;28;20238;-86
2021/08/17 08:33:07;;;;;;;20.83;3.42;;;18.10;99.90;;;;;;5089550;28;20020;-84
2021/08/17 08:35:33;;;;;;;27.20;3.72;;;18.30;99.90;;;;;;5089837;28;20391;-86
2021/08/17 08:37:58;;;;;;;25.27;4.07;;;18.40;99.90;;;;;;5088906;28;20167;-84
2021/08/17 08:40:25;;;;;;;19.92;4.32;;;18.50;99.90;;;;;;5089112;28;20040;-83
2021/08/17 08:42:51;;;;;;;23.20;3.70;;;18.60;99.90;;;;;;5089391;28;20024;-82
2021/08/17 08:45:17;;;;;;;25.38;4.50;;;18.70;99.90;;;;;;5088688;28;20552;-81
2021/08/17 08:47:43;;;;;;;26.02;4.90;;;18.60;99.90;;;;;;5088691;28;20104;-83
2021/08/17 08:50:10;;;;;;;19.55;4.05;;;18.40;99.90;;;;;;5090460;28;20020;-83
2021/08/17 08:52:36;;;;;;;20.77;2.72;;;18.10;99.90;;;;;;5088942;28;20107;-82
2021/08/17 08:55:02;;;;;;;20.95;4.72;;;18.30;99.90;;;;;;5089658;28;20103;-83
2021/08/17 08:57:28;;;;;;;24.58;3.63;;;18.80;99.90;;;;;;5084710;28;20028;-84
2021/08/17 08:59:54;;;;;;;30.15;3.78;;;19.10;99.90;;;;;;5088445;28;20020;-85
2021/08/17 09:02:20;;;;;;;17.17;3.45;;;18.90;99.90;;;;;;5088555;28;20082;-85
2021/08/17 09:04:52;;;;;;;18.20;3.45;;;18.60;99.90;;;;;;5088104;28;20031;-83
2021/08/17 09:07:42;;;;;;;27.73;4.72;;;18.50;99.90;;;;;;5086740;28;20032;-84
2021/08/17 09:10:21;;;;;;;30.92;5.07;;;18.60;99.90;;;;;;5080151;28;20024;-82
2021/08/17 09:12:56;;;;;;;29.92;3.95;;;18.70;99.90;;;;;;5088551;28;20131;-82
2021/08/17 09:15:28;;;;;;;15.10;3.25;;;18.70;99.90;;;;;;5079241;28;20039;-82
2021/08/17 09:18:06;;;;;;;22.50;4.15;;;18.70;99.90;;;;;;5088015;28;20147;-84
2021/08/17 09:20:39;;;;;;;10.50;2.90;;;19.00;99.90;;;;;;5087055;28;20404;-83
2021/08/17 09:23:28;;;;;;;20.03;4.00;;;18.90;99.90;;;;;;5088624;28;20020;-82
2021/08/17 09:25:58;;;;;;;23.15;3.95;;;18.90;99.90;;;;;;5088654;28;20365;-82
2021/08/17 09:28:33;;;;;;;23.90;4.22;;;18.70;99.90;;;;;;5088437;28;20510;-81
2021/08/17 09:31:01;;;;;;;22.27;4.30;;;18.60;99.90;;;;;;5088920;28;20028;-82
2021/08/17 09:33:38;;;;;;;21.48;4.10;;;18.50;99.90;;;;;;5090477;28;20027;-82
2021/08/17 09:36:04;;;;;;;27.60;4.65;;;18.40;99.90;;;;;;5087768;28;20032;-83
2021/08/17 09:38:31;;;;;;;24.10;3.83;;;18.70;99.90;;;;;;5089809;28;20441;-83
2021/08/17 09:40:58;;;;;;;28.63;3.90;;;18.70;99.90;;;;;;5090933;28;20032;-82
2021/08/17 09:43:25;;;;;;;20.85;4.10;;;18.70;99.90;;;;;;5088557;28;20078;-81
2021/08/17 09:45:51;;;;;;;20.10;3.55;;;18.70;99.90;;;;;;5089669;28;20121;-82
2021/08/17 09:48:28;;;;;;;17.15;4.30;;;19.10;99.90;;;;;;5087997;28;20024;-84
2021/08/17 09:50:54;;;;;;;17.27;3.25;;;19.00;99.90;;;;;;5080254;28;20052;-85
2021/08/17 09:53:21;;;;;;;21.48;4.32;;;19.20;99.90;;;;;;5087874;28;20720;-85
2021/08/17 09:55:55;;;;;;;19.85;3.90;;;19.40;99.90;;;;;;5086712;28;20024;-85
2021/08/17 09:58:25;;;;;;;28.50;4.50;;;19.70;99.90;;;;;;5084914;28;20082;-83
2021/08/17 10:00:55;;;;;;;25.10;4.32;;;19.70;99.90;;;;;;5087089;28;20032;-83
2021/08/17 10:03:22;;;;;;;15.95;3.28;;;19.80;99.90;;;;;;5088027;28;20032;-84
2021/08/17 10:05:48;;;;;;;24.85;3.92;;;19.90;99.90;;;;;;5087224;28;20063;-82
2021/08/17 10:08:16;;;;;;;11.77;3.35;;;20.10;99.90;;;;;;5081881;28;20039;-84
2021/08/17 10:10:46;;;;;;;26.02;4.07;;;20.10;99.90;;;;;;5078465;28;20032;-84
2021/08/17 10:13:15;;;;;;;29.88;4.15;;;20.30;99.90;;;;;;5087655;28;20048;-86
2021/08/17 10:15:43;;;;;;;26.55;3.83;;;20.00;99.90;;;;;;5089001;28;20015;-85
2021/08/17 10:18:10;;;;;;;19.13;3.88;;;19.80;99.90;;;;;;5087586;28;20042;-84
2021/08/17 10:20:41;;;;;;;28.15;5.53;;;19.60;99.90;;;;;;5087111;28;20167;-84
2021/08/17 10:23:08;;;;;;;25.55;4.47;;;19.40;99.90;;;;;;5089301;28;20119;-85
2021/08/17 10:25:46;;;;;;;27.35;4.50;;;19.10;99.90;;;;;;5086998;28;20036;-86
2021/08/17 10:28:24;;;;;;;28.58;4.47;;;18.70;99.90;;;;;;5087968;28;20083;-85
2021/08/17 10:30:50;;;;;;;26.33;4.63;;;18.90;99.90;;;;;;5091034;28;20059;-88
2021/08/17 10:33:42;;;;;;;18.42;4.22;;;19.00;99.90;;;;;;5091105;28;20449;-85
2021/08/17 10:36:09;;;;;;;31.48;6.05;;;18.80;99.90;;;;;;5090252;28;20035;-87
2021/08/17 10:38:38;;;;;;;22.20;4.43;;;18.60;99.90;;;;;;5090313;28;20028;-84
2021/08/17 10:41:06;;;;;;;22.73;4.55;;;18.50;99.90;;;;;;5090439;28;20035;-85
2021/08/17 10:43:31;;;;;;;36.33;5.47;;;18.50;99.90;;;;;;5090529;28;20434;-86
2021/08/17 10:46:06;;;;;;;21.80;4.15;;;19.30;99.90;;;;;;5089923;28;20020;-85
2021/08/17 10:48:54;;;;;;;19.13;3.95;;;19.70;99.90;;;;;;5091779;28;20028;-85
2021/08/17 10:51:23;;;;;;;22.77;3.63;;;20.00;99.90;;;;;;5090722;28;20024;-88
2021/08/17 10:54:12;;;;;;;25.10;3.70;;;20.20;99.90;;;;;;5090512;28;20020;-84
2021/08/17 10:56:38;;;;;;;15.30;3.38;;;20.50;99.90;;;;;;5090270;28;20119;-88
2021/08/17 10:59:05;;;;;;;24.25;3.80;;;20.00;99.90;;;;;;5090872;28;20475;-86
2021/08/17 11:01:30;;;;;;;22.85;3.53;;;19.70;99.90;;;;;;5090155;28;20115;-88
2021/08/17 11:03:57;;;;;;;16.08;3.35;;;20.20;99.90;;;;;;5091711;28;20461;-86
2021/08/17 11:06:49;;;;;;;16.13;3.10;;;20.30;99.90;;;;;;5091980;28;20051;-88
2021/08/17 11:09:28;;;;;;;18.00;4.10;;;20.50;99.90;;;;;;5085636;28;20020;-87
2021/08/17 11:12:05;;;;;;;16.05;3.30;;;20.70;99.90;;;;;;5086582;28;20040;-84
2021/08/17 11:14:32;;;;;;;8.05;2.90;;;20.40;99.90;;;;;;5086850;28;20028;-85
2021/08/17 11:17:00;;;;;;;25.10;4.03;;;20.00;99.90;;;;;;5086719;28;20020;-84
2021/08/17 11:19:31;;;;;;;27.23;5.00;;;19.80;99.90;;;;;;5086838;28;20024;-85
2021/08/17 11:22:02;;;;;;;17.67;4.20;;;19.90;99.90;;;;;;5089818;28;20026;-85
2021/08/17 11:24:34;;;;;;;20.15;3.33;;;20.30;99.90;;;;;;5089395;28;20108;-85
2021/08/17 11:27:18;;;;;;;18.10;3.38;;;20.50;99.90;;;;;;5081748;28;20028;-88
2021/08/17 11:29:47;;;;;;;10.77;2.80;;;20.40;99.90;;;;;;5085425;28;20032;-86
2021/08/17 11:32:32;;;;;;;19.88;3.33;;;20.70;99.90;;;;;;5091247;28;20056;-85
2021/08/17 11:35:06;;;;;;;14.20;3.70;;;20.90;99.90;;;;;;5086998;28;20047;-88
2021/08/17 11:37:33;;;;;;;21.15;3.55;;;20.70;99.90;;;;;;5090106;28;20028;-85
2021/08/17 11:40:01;;;;;;;18.10;4.10;;;20.70;99.90;;;;;;5091140;28;20058;-85
2021/08/17 11:42:29;;;;;;;16.48;4.00;;;20.20;99.90;;;;;;5089942;28;20560;-86
2021/08/17 11:45:01;;;;;;;19.30;4.03;;;19.90;99.90;;;;;;5089126;28;20063;-87
2021/08/17 11:47:28;;;;;;;12.85;3.55;;;20.10;99.90;;;;;;5090094;28;20510;-85
2021/08/17 11:49:56;;;;;;;13.35;3.47;;;20.10;99.90;;;;;;5089651;28;20023;-86
2021/08/17 11:52:41;;;;;;;15.13;2.83;;;20.50;99.90;;;;;;5089932;28;20024;-88
2021/08/17 11:55:09;;;;;;;13.48;3.47;;;20.70;99.90;;;;;;5090707;28;20400;-86
2021/08/17 11:57:47;;;;;;;16.00;4.20;;;21.60;99.90;;;;;;5086550;28;20027;-84
2021/08/17 12:00:20;;;;;;;16.67;3.83;;;21.20;99.90;;;;;;5090901;28;20032;-85
2021/08/17 12:02:51;;;;;;;25.92;4.30;;;21.10;99.90;;;;;;5086873;28;20514;-82
2021/08/17 12:05:19;;;;;;;15.00;2.95;;;21.20;99.90;;;;;;5090626;28;20119;-86
2021/08/17 12:07:47;;;;;;;14.73;3.38;;;21.00;99.90;;;;;;5093279;28;20024;-85
2021/08/17 12:10:27;;;;;;;17.50;3.28;;;21.30;99.90;;;;;;5092899;28;20051;-86
2021/08/17 12:13:00;;;;;;;17.92;3.85;;;21.20;99.90;;;;;;5094530;28;20127;-85
2021/08/17 12:15:31;;;;;;;16.33;3.33;;;21.20;99.90;;;;;;5091744;28;20054;-89
2021/08/17 12:18:02;;;;;;;20.35;4.18;;;21.20;99.90;;;;;;5094625;28;20054;-87
2021/08/17 12:20:29;;;;;;;9.63;2.85;;;21.30;99.90;;;;;;5094169;28;20119;-89
2021/08/17 12:22:55;;;;;;;17.50;3.72;;;21.30;99.90;;;;;;5092792;28;20110;-89
2021/08/17 12:25:23;;;;;;;17.48;3.05;;;21.10;99.90;;;;;;5090252;28;20024;-88
2021/08/17 12:28:06;;;;;;;13.80;3.53;;;21.50;99.90;;;;;;5088359;28;20055;-83
2021/08/17 12:30:33;;;;;;;;;;;21.10;99.90;;;;;;5089183;28;20536;-85
2021/08/17 12:33:00;;;;;;;17.17;3.53;;;21.10;99.90;;;;;;5087605;28;20390;-91
2021/08/17 12:35:31;;;;;;;17.77;3.47;;;21.60;99.90;;;;;;5090399;28;20556;-88
2021/08/17 12:38:17;;;;;;;17.65;3.35;;;22.70;99.90;;;;;;5090658;28;20086;-89
2021/08/17 12:40:53;;;;;;;19.70;3.38;;;22.60;99.90;;;;;;5090560;28;20044;-89